createdAt,value
2022-07-29T00:01:06.724Z,2.90
2022-07-29T00:02:39.853Z,3.25
2022-07-29T00:05:46.691Z,3.33
2022-07-29T00:07:19.716Z,3.10
2022-07-29T00:08:54.145Z,3.17
2022-07-29T00:10:27.124Z,3.30
2022-07-29T00:12:02.126Z,3.85
2022-07-29T00:13:35.108Z,3.85
2022-07-29T00:15:09.171Z,4.00
2022-07-29T00:16:42.184Z,4.00
2022-07-29T00:18:15.200Z,4.50
2022-07-29T00:19:48.255Z,4.50
2022-07-29T00:21:21.339Z,3.85
2022-07-29T00:24:28.646Z,3.75
2022-07-29T00:26:01.635Z,4.28
2022-07-29T00:27:34.658Z,3.28
2022-07-29T00:31:00.591Z,3.15
2022-07-29T00:34:07.303Z,3.10
2022-07-29T00:35:44.891Z,3.50
2022-07-29T00:37:17.296Z,3.97
2022-07-29T00:38:50.867Z,4.38
2022-07-29T00:40:25.902Z,3.88
2022-07-29T00:41:58.887Z,3.50
2022-07-29T00:43:31.851Z,3.75
2022-07-29T00:45:05.307Z,3.60
2022-07-29T00:46:38.333Z,3.50
2022-07-29T00:48:11.931Z,4.07
2022-07-29T00:49:44.445Z,3.10
2022-07-29T00:51:17.572Z,3.35
2022-07-29T00:54:22.725Z,3.25
2022-07-29T00:55:57.699Z,3.13
2022-07-29T00:57:29.780Z,3.20
2022-07-29T00:59:02.849Z,2.80
2022-07-29T01:00:36.179Z,2.53
2022-07-29T01:02:08.435Z,2.70
2022-07-29T01:03:41.665Z,3.17
2022-07-29T01:06:48.436Z,3.03
2022-07-29T01:08:22.476Z,2.65
2022-07-29T01:09:56.649Z,3.08
2022-07-29T01:11:31.197Z,2.80
2022-07-29T01:13:04.468Z,2.40
2022-07-29T01:14:41.471Z,2.60
2022-07-29T01:16:20.255Z,2.75
2022-07-29T01:18:03.503Z,2.45
2022-07-29T01:19:49.786Z,2.95
2022-07-29T01:21:44.506Z,2.80
2022-07-29T01:23:53.452Z,2.60
2022-07-29T01:25:59.601Z,2.72
2022-07-29T01:27:44.525Z,2.85
2022-07-29T01:29:35.946Z,2.83
2022-07-29T01:31:15.604Z,3.00
2022-07-29T01:33:03.750Z,2.90
2022-07-29T01:34:43.334Z,3.10
2022-07-29T01:36:22.813Z,3.00
2022-07-29T01:38:03.302Z,2.90
2022-07-29T01:39:39.291Z,3.00
2022-07-29T01:41:17.240Z,2.83
2022-07-29T01:42:53.635Z,3.05
2022-07-29T01:44:33.223Z,2.90
2022-07-29T01:46:11.625Z,3.00
2022-07-29T01:47:48.721Z,3.25
2022-07-29T01:49:27.801Z,3.38
2022-07-29T01:51:06.605Z,3.35
2022-07-29T01:52:57.183Z,3.95
2022-07-29T01:54:36.310Z,3.88
2022-07-29T01:56:12.322Z,3.70
2022-07-29T01:57:48.752Z,3.88
2022-07-29T01:59:24.219Z,4.10
2022-07-29T02:00:59.537Z,4.00
2022-07-29T02:02:33.942Z,4.22
2022-07-29T02:04:09.348Z,4.10
2022-07-29T02:05:46.116Z,4.00
2022-07-29T02:07:21.838Z,3.88
2022-07-29T02:08:56.174Z,4.15
2022-07-29T02:10:33.638Z,3.78
2022-07-29T02:12:09.262Z,3.80
2022-07-29T02:13:43.613Z,3.83
2022-07-29T02:15:18.615Z,4.00
2022-07-29T02:16:55.265Z,3.40
2022-07-29T02:18:30.820Z,3.70
2022-07-29T02:20:07.032Z,3.75
2022-07-29T02:21:40.755Z,3.95
2022-07-29T02:23:14.775Z,3.80
2022-07-29T02:24:49.866Z,3.60
2022-07-29T02:26:25.136Z,3.40
2022-07-29T02:27:59.412Z,3.70
2022-07-29T02:29:34.536Z,3.55
2022-07-29T02:31:08.670Z,3.30
2022-07-29T02:32:45.452Z,3.17
2022-07-29T02:34:21.728Z,2.90
2022-07-29T02:35:55.222Z,2.92
2022-07-29T02:37:30.150Z,3.08
2022-07-29T02:39:04.372Z,5.63
2022-07-29T02:40:41.784Z,4.40
2022-07-29T02:42:18.591Z,2.70
2022-07-29T02:43:56.415Z,2.92
2022-07-29T02:45:30.680Z,3.08
2022-07-29T02:47:09.447Z,2.42
2022-07-29T02:48:53.896Z,2.60
2022-07-29T02:50:33.958Z,2.60
2022-07-29T02:52:11.557Z,2.80
2022-07-29T02:53:59.134Z,3.10
2022-07-29T02:55:35.891Z,2.90
2022-07-29T02:57:15.618Z,2.65
2022-07-29T02:58:54.585Z,2.80
2022-07-29T03:00:31.740Z,2.83
2022-07-29T03:02:06.756Z,3.33
2022-07-29T03:03:40.337Z,3.85
2022-07-29T03:05:19.655Z,2.97
2022-07-29T03:06:54.441Z,3.00
2022-07-29T03:08:29.749Z,2.90
2022-07-29T03:10:03.942Z,2.83
2022-07-29T03:11:42.360Z,3.17
2022-07-29T03:13:23.928Z,2.90
2022-07-29T03:14:58.567Z,2.90
2022-07-29T03:16:32.389Z,3.10
2022-07-29T03:18:09.152Z,2.60
2022-07-29T03:19:42.610Z,2.88
2022-07-29T03:21:16.053Z,2.80
2022-07-29T03:22:49.202Z,2.70
2022-07-29T03:26:01.933Z,2.83
2022-07-29T03:29:07.762Z,2.75
2022-07-29T03:30:46.452Z,2.70
2022-07-29T03:33:58.481Z,2.80
2022-07-29T03:38:44.422Z,2.33
2022-07-29T03:40:21.983Z,2.97
2022-07-29T03:42:00.638Z,2.47
2022-07-29T03:43:36.427Z,2.58
2022-07-29T03:45:12.407Z,2.70
2022-07-29T03:46:48.371Z,3.65
2022-07-29T03:48:24.119Z,2.72
2022-07-29T03:50:01.895Z,2.72
2022-07-29T03:51:34.931Z,3.03
2022-07-29T03:53:10.441Z,3.10
2022-07-29T03:54:43.600Z,2.90
2022-07-29T03:59:25.136Z,3.05
2022-07-29T04:00:59.475Z,3.20
2022-07-29T04:02:33.766Z,2.97
2022-07-29T04:04:07.479Z,3.38
2022-07-29T04:05:40.776Z,3.60
2022-07-29T04:07:16.875Z,3.40
2022-07-29T04:08:51.356Z,3.40
2022-07-29T04:10:30.134Z,3.47
2022-07-29T04:12:05.387Z,3.00
2022-07-29T04:13:38.673Z,3.70
2022-07-29T04:15:12.815Z,4.18
2022-07-29T04:16:45.984Z,3.33
2022-07-29T04:19:52.031Z,3.00
2022-07-29T04:21:25.043Z,3.30
2022-07-29T04:22:58.050Z,3.20
2022-07-29T04:24:32.569Z,3.10
2022-07-29T04:26:05.507Z,2.97
2022-07-29T04:27:58.617Z,3.45
2022-07-29T04:29:31.681Z,3.00
2022-07-29T04:31:04.893Z,3.20
2022-07-29T04:32:37.902Z,3.60
2022-07-29T04:34:11.327Z,3.90
2022-07-29T04:35:52.325Z,3.78
2022-07-29T04:39:01.961Z,3.95
2022-07-29T04:40:38.703Z,3.38
2022-07-29T04:42:11.761Z,3.40
2022-07-29T04:43:46.366Z,3.80
2022-07-29T04:45:22.233Z,3.83
2022-07-29T04:46:55.825Z,3.33
2022-07-29T04:48:28.833Z,3.15
2022-07-29T04:51:35.047Z,2.83
2022-07-29T04:53:08.451Z,2.83
2022-07-29T04:54:41.464Z,3.15
2022-07-29T04:56:15.822Z,3.05
2022-07-29T04:57:48.912Z,3.40
2022-07-29T04:59:21.955Z,3.63
2022-07-29T05:00:54.978Z,2.63
2022-07-29T05:02:27.083Z,2.80
2022-07-29T05:04:00.842Z,2.97
2022-07-29T05:05:34.419Z,3.50
2022-07-29T05:07:07.487Z,2.75
2022-07-29T05:08:41.953Z,3.40
2022-07-29T05:10:14.224Z,2.95
2022-07-29T05:11:48.617Z,2.88
2022-07-29T05:13:21.753Z,2.90
2022-07-29T05:16:26.950Z,2.90
2022-07-29T05:18:00.030Z,2.95
2022-07-29T05:19:32.772Z,2.90
2022-07-29T05:21:05.726Z,3.00
2022-07-29T05:22:38.722Z,3.17
2022-07-29T05:24:12.663Z,6.18
2022-07-29T05:25:45.861Z,6.45
2022-07-29T05:27:20.296Z,3.03
2022-07-29T05:28:54.780Z,3.17
2022-07-29T05:30:26.993Z,2.90
2022-07-29T05:32:00.020Z,3.00
2022-07-29T05:33:36.229Z,3.25
2022-07-29T05:35:10.524Z,3.25
2022-07-29T05:36:43.575Z,2.80
2022-07-29T05:38:16.677Z,2.90
2022-07-29T05:41:30.355Z,3.00
2022-07-29T05:43:04.700Z,2.92
2022-07-29T05:44:39.171Z,3.00
2022-07-29T05:46:12.280Z,3.00
2022-07-29T05:49:26.874Z,3.65
2022-07-29T05:51:00.463Z,3.38
2022-07-29T05:52:33.523Z,2.90
2022-07-29T05:55:39.420Z,3.00
2022-07-29T05:58:51.920Z,2.80
2022-07-29T06:00:25.222Z,2.85
2022-07-29T06:08:32.359Z,3.50
2022-07-29T06:10:06.012Z,3.30
2022-07-29T06:11:38.929Z,3.30
2022-07-29T06:13:12.286Z,2.92
2022-07-29T06:14:48.151Z,2.90
2022-07-29T06:16:29.985Z,2.97
2022-07-29T06:18:03.483Z,3.40
2022-07-29T06:19:37.296Z,3.00
2022-07-29T06:21:11.655Z,4.03
2022-07-29T06:22:44.929Z,4.78
2022-07-29T06:24:18.597Z,4.00
2022-07-29T06:25:52.018Z,3.30
2022-07-29T06:27:24.991Z,3.30
2022-07-29T06:28:57.959Z,3.30
2022-07-29T06:30:32.531Z,3.50
2022-07-29T06:32:06.237Z,3.28
2022-07-29T06:33:39.308Z,3.20
2022-07-29T06:37:09.000Z,3.08
2022-07-29T06:38:51.466Z,3.20
2022-07-29T06:40:42.892Z,3.15
2022-07-29T06:42:16.070Z,3.83
2022-07-29T06:45:25.197Z,3.30
2022-07-29T06:47:05.687Z,3.10
2022-07-29T06:48:39.468Z,4.20
2022-07-29T06:50:13.465Z,3.42
2022-07-29T06:51:46.527Z,3.20
2022-07-29T06:54:52.219Z,3.05
2022-07-29T06:56:25.684Z,2.80
2022-07-29T06:57:58.733Z,3.10
2022-07-29T07:01:09.417Z,3.13
2022-07-29T07:02:43.880Z,3.28
2022-07-29T07:04:17.323Z,3.15
2022-07-29T07:05:50.906Z,3.55
2022-07-29T07:07:23.895Z,3.40
2022-07-29T07:08:56.994Z,3.00
2022-07-29T07:12:03.202Z,3.00
2022-07-29T07:13:36.721Z,3.00
2022-07-29T07:15:10.459Z,2.95
2022-07-29T07:16:43.509Z,3.00
2022-07-29T07:19:50.867Z,3.00
2022-07-29T07:21:23.828Z,3.17
2022-07-29T07:22:55.989Z,3.50
2022-07-29T07:24:29.073Z,3.30
2022-07-29T07:27:34.915Z,3.47
2022-07-29T07:29:08.197Z,3.50
2022-07-29T07:30:42.140Z,4.20
2022-07-29T07:32:17.195Z,4.65
2022-07-29T07:33:52.671Z,3.40
2022-07-29T07:35:25.777Z,3.40
2022-07-29T07:38:31.602Z,3.75
2022-07-29T07:41:37.389Z,3.50
2022-07-29T07:43:10.474Z,3.80
2022-07-29T07:45:11.064Z,3.83
2022-07-29T07:46:36.583Z,3.85
2022-07-29T07:48:11.636Z,3.72
2022-07-29T07:49:46.016Z,3.92
2022-07-29T07:51:19.148Z,4.05
2022-07-29T07:52:54.529Z,4.35
2022-07-29T07:54:27.557Z,3.85
2022-07-29T07:57:44.277Z,4.32
2022-07-29T07:59:17.265Z,3.90
2022-07-29T08:02:23.339Z,3.70
2022-07-29T08:03:56.380Z,3.65
2022-07-29T08:07:04.438Z,3.45
2022-07-29T08:08:37.405Z,3.40
2022-07-29T08:10:10.958Z,3.55
2022-07-29T08:11:52.037Z,3.67
2022-07-29T08:13:28.227Z,3.40
2022-07-29T08:15:01.302Z,3.50
2022-07-29T08:16:34.517Z,3.17
2022-07-29T08:18:08.870Z,3.95
2022-07-29T08:19:42.026Z,3.30
2022-07-29T08:22:49.946Z,3.42
2022-07-29T08:24:40.941Z,3.33
2022-07-29T08:26:14.934Z,3.70
2022-07-29T08:27:47.895Z,3.70
2022-07-29T08:30:53.678Z,3.80
2022-07-29T08:32:52.084Z,4.30
2022-07-29T08:34:19.739Z,3.65
2022-07-29T08:36:01.121Z,4.07
2022-07-29T08:37:35.450Z,3.63
2022-07-29T08:39:08.465Z,5.90
2022-07-29T08:40:41.923Z,4.20
2022-07-29T08:42:14.981Z,3.47
2022-07-29T08:43:48.314Z,3.95
2022-07-29T08:45:22.551Z,3.88
2022-07-29T08:46:56.577Z,3.60
2022-07-29T08:48:30.478Z,3.53
2022-07-29T08:50:03.569Z,3.45
2022-07-29T08:51:49.681Z,3.55
2022-07-29T08:53:27.377Z,3.80
2022-07-29T08:55:01.239Z,4.00
2022-07-29T08:56:35.067Z,4.07
2022-07-29T08:58:08.235Z,3.70
2022-07-29T08:59:44.479Z,3.50
2022-07-29T09:01:23.535Z,3.60
2022-07-29T09:03:12.791Z,3.50
2022-07-29T09:04:46.171Z,3.70
2022-07-29T09:06:20.898Z,3.40
2022-07-29T09:07:54.143Z,3.75
2022-07-29T09:09:28.929Z,3.58
2022-07-29T09:11:05.550Z,4.03
2022-07-29T09:12:38.906Z,3.63
2022-07-29T09:14:14.319Z,4.07
2022-07-29T09:15:47.329Z,3.92
2022-07-29T09:17:20.906Z,3.42
2022-07-29T09:18:53.882Z,3.78
2022-07-29T09:22:03.242Z,3.50
2022-07-29T09:23:36.783Z,3.30
2022-07-29T09:25:13.651Z,3.40
2022-07-29T09:26:48.035Z,3.63
2022-07-29T09:28:21.003Z,3.40
2022-07-29T09:30:02.114Z,3.53
2022-07-29T09:31:37.162Z,3.80
2022-07-29T09:33:10.410Z,3.20
2022-07-29T09:34:43.381Z,3.80
2022-07-29T09:36:16.599Z,3.53
2022-07-29T09:37:50.392Z,3.60
2022-07-29T09:39:31.210Z,3.55
2022-07-29T09:41:08.951Z,3.63
2022-07-29T09:42:42.133Z,3.65
2022-07-29T09:44:15.844Z,3.20
2022-07-29T09:45:50.314Z,3.55
2022-07-29T09:47:26.811Z,3.35
2022-07-29T09:49:09.811Z,3.65
2022-07-29T09:50:44.724Z,3.78
2022-07-29T09:52:17.747Z,3.75
2022-07-29T09:53:51.350Z,4.10
2022-07-29T09:55:26.688Z,3.47
2022-07-29T09:57:01.287Z,3.80
2022-07-29T09:58:35.564Z,3.80
2022-07-29T10:00:10.645Z,3.70
2022-07-29T10:01:43.943Z,3.55
2022-07-29T10:03:18.003Z,3.60
2022-07-29T10:04:51.149Z,3.60
2022-07-29T10:06:24.193Z,3.65
2022-07-29T10:07:58.799Z,3.50
2022-07-29T10:09:32.228Z,3.80
2022-07-29T10:11:13.872Z,3.85
2022-07-29T10:12:58.969Z,3.60
2022-07-29T10:14:33.685Z,15.32
2022-07-29T10:16:07.840Z,6.18
2022-07-29T10:17:41.888Z,3.80
2022-07-29T10:19:15.482Z,3.63
2022-07-29T10:20:49.148Z,3.60
2022-07-29T10:22:43.572Z,4.07
2022-07-29T10:24:15.653Z,4.53
2022-07-29T10:25:48.952Z,3.95
2022-07-29T10:27:21.953Z,3.95
2022-07-29T10:28:57.386Z,3.85
2022-07-29T10:30:30.447Z,3.60
2022-07-29T10:32:28.513Z,3.47
2022-07-29T10:34:12.876Z,4.20
2022-07-29T10:35:56.736Z,3.50
2022-07-29T10:37:39.640Z,3.47
2022-07-29T10:39:41.668Z,3.45
2022-07-29T10:41:59.769Z,4.15
2022-07-29T10:43:38.742Z,3.63
2022-07-29T10:45:13.202Z,3.80
2022-07-29T10:46:48.718Z,3.80
2022-07-29T10:48:23.600Z,4.20
2022-07-29T10:50:01.757Z,3.88
2022-07-29T10:51:57.222Z,3.95
2022-07-29T10:53:49.072Z,3.50
2022-07-29T10:55:37.730Z,3.65
2022-07-29T10:57:52.404Z,4.60
2022-07-29T10:59:36.425Z,22.00
2022-07-29T11:01:37.299Z,4.15
2022-07-29T11:03:32.198Z,4.07
2022-07-29T11:05:09.381Z,4.45
2022-07-29T11:07:10.026Z,4.70
2022-07-29T11:08:43.030Z,4.68
2022-07-29T11:12:48.251Z,4.28
2022-07-29T11:14:41.327Z,4.22
2022-07-29T11:16:16.768Z,4.22
2022-07-29T11:18:14.970Z,4.35
2022-07-29T11:19:52.013Z,4.65
2022-07-29T11:21:54.724Z,4.50
2022-07-29T11:23:33.864Z,4.00
2022-07-29T11:25:17.709Z,4.03
2022-07-29T11:27:18.074Z,4.70
2022-07-29T11:28:56.610Z,4.60
2022-07-29T11:30:51.461Z,4.45
2022-07-29T11:32:29.281Z,4.50
2022-07-29T11:34:21.301Z,4.60
2022-07-29T11:36:10.545Z,4.57
2022-07-29T11:38:28.036Z,4.43
2022-07-29T11:40:13.183Z,4.45
2022-07-29T11:41:46.437Z,4.70
2022-07-29T11:43:50.663Z,5.63
2022-07-29T11:45:44.312Z,5.22
2022-07-29T11:47:22.245Z,4.20
2022-07-29T11:48:58.526Z,4.57
2022-07-29T11:50:35.376Z,4.80
2022-07-29T11:52:10.884Z,4.60
2022-07-29T11:53:52.641Z,5.05
2022-07-29T11:55:32.654Z,5.20
2022-07-29T11:57:09.867Z,4.63
2022-07-29T11:58:43.369Z,4.35
2022-07-29T12:00:26.634Z,4.70
2022-07-29T12:02:33.283Z,4.38
2022-07-29T12:05:59.296Z,4.60
2022-07-29T12:07:35.278Z,4.35
2022-07-29T12:09:11.253Z,4.45
2022-07-29T12:10:49.410Z,4.70
2022-07-29T12:12:22.907Z,4.53
2022-07-29T12:13:57.633Z,4.28
2022-07-29T12:15:46.148Z,4.10
2022-07-29T12:17:30.972Z,4.10
2022-07-29T12:19:06.740Z,4.78
2022-07-29T12:20:41.837Z,4.68
2022-07-29T12:22:27.339Z,5.30
2022-07-29T12:24:05.929Z,4.47
2022-07-29T12:25:45.092Z,4.03
2022-07-29T12:27:29.466Z,3.85
2022-07-29T12:29:03.498Z,4.18
2022-07-29T12:30:39.906Z,4.10
2022-07-29T12:32:19.479Z,4.40
2022-07-29T12:33:55.673Z,4.20
2022-07-29T12:35:33.232Z,4.25
2022-07-29T12:37:06.393Z,4.13
2022-07-29T12:38:42.761Z,4.53
2022-07-29T12:40:18.306Z,4.22
2022-07-29T12:41:51.425Z,4.35
2022-07-29T12:43:25.381Z,4.18
2022-07-29T12:44:58.674Z,4.05
2022-07-29T12:46:32.113Z,3.70
2022-07-29T12:48:05.615Z,3.97
2022-07-29T12:49:38.687Z,3.97
2022-07-29T12:51:15.464Z,3.85
2022-07-29T12:52:48.926Z,3.70
2022-07-29T12:54:22.043Z,3.80
2022-07-29T12:56:07.967Z,4.30
2022-07-29T12:57:49.692Z,3.92
2022-07-29T12:59:24.632Z,3.90
2022-07-29T13:01:17.380Z,3.70
2022-07-29T13:02:57.917Z,3.33
2022-07-29T13:04:32.354Z,4.10
2022-07-29T13:06:05.400Z,3.88
2022-07-29T13:07:54.073Z,3.65
2022-07-29T13:09:39.927Z,3.90
2022-07-29T13:11:31.178Z,3.53
2022-07-29T13:13:09.696Z,3.90
2022-07-29T13:14:44.167Z,3.70
2022-07-29T13:16:17.263Z,3.85
2022-07-29T13:17:50.319Z,3.00
2022-07-29T13:19:35.594Z,3.50
2022-07-29T13:21:16.091Z,4.10
2022-07-29T13:22:51.067Z,3.20
2022-07-29T13:24:24.123Z,3.22
2022-07-29T13:26:06.787Z,3.13
2022-07-29T13:27:41.528Z,4.00
2022-07-29T13:29:14.419Z,3.30
2022-07-29T13:30:47.604Z,3.83
2022-07-29T13:32:27.914Z,3.90
2022-07-29T13:34:02.076Z,4.10
2022-07-29T13:35:35.173Z,3.60
2022-07-29T13:37:13.110Z,4.05
2022-07-29T13:38:47.481Z,3.20
2022-07-29T13:40:20.832Z,3.70
2022-07-29T13:41:53.992Z,3.47
2022-07-29T13:43:29.635Z,2.90
2022-07-29T13:45:03.103Z,2.65
2022-07-29T13:46:36.293Z,3.30
2022-07-29T13:48:13.131Z,2.88
2022-07-29T13:49:46.433Z,2.78
2022-07-29T13:51:19.397Z,2.92
2022-07-29T13:52:52.405Z,2.90
2022-07-29T13:54:27.003Z,2.60
2022-07-29T13:56:00.870Z,3.15
2022-07-29T13:57:33.882Z,2.30
2022-07-29T13:59:06.906Z,2.25
2022-07-29T14:00:40.063Z,2.65
2022-07-29T14:02:15.641Z,2.60
2022-07-29T14:03:48.759Z,3.50
2022-07-29T14:05:21.781Z,3.47
2022-07-29T14:06:54.767Z,3.45
2022-07-29T14:08:28.012Z,3.42
2022-07-29T14:10:02.361Z,3.10
2022-07-29T14:11:35.486Z,3.20
2022-07-29T14:13:25.240Z,3.42
2022-07-29T14:14:59.263Z,3.00
2022-07-29T14:16:32.324Z,2.60
2022-07-29T14:18:05.608Z,2.90
2022-07-29T14:19:39.105Z,3.92
2022-07-29T14:21:12.307Z,3.22
2022-07-29T14:22:45.752Z,3.40
2022-07-29T14:24:22.939Z,3.80
2022-07-29T14:25:57.489Z,4.50
2022-07-29T14:27:37.910Z,3.97
2022-07-29T14:29:11.529Z,4.20
2022-07-29T14:30:44.537Z,4.05
2022-07-29T14:32:17.621Z,3.80
2022-07-29T14:33:50.711Z,4.00
2022-07-29T14:35:23.721Z,3.90
2022-07-29T14:36:57.205Z,4.13
2022-07-29T14:38:30.260Z,3.60
2022-07-29T14:40:04.663Z,3.80
2022-07-29T14:41:39.117Z,3.60
2022-07-29T14:43:12.783Z,3.53
2022-07-29T14:44:45.959Z,3.90
2022-07-29T14:46:20.078Z,4.55
2022-07-29T14:47:56.372Z,4.00
2022-07-29T14:49:30.523Z,4.57
2022-07-29T14:51:05.132Z,4.30
2022-07-29T14:52:38.431Z,4.15
2022-07-29T14:54:11.490Z,4.93
2022-07-29T14:55:44.443Z,5.15
2022-07-29T14:58:52.148Z,4.75
2022-07-29T15:00:25.222Z,4.63
2022-07-29T15:01:59.964Z,3.70
2022-07-29T15:03:33.968Z,3.65
2022-07-29T15:05:07.643Z,3.90
2022-07-29T15:06:40.622Z,3.75
2022-07-29T15:08:13.894Z,4.18
2022-07-29T15:09:49.304Z,3.80
2022-07-29T15:11:23.315Z,3.90
2022-07-29T15:12:57.846Z,4.10
2022-07-29T15:14:31.126Z,3.60
2022-07-29T15:16:04.408Z,3.58
2022-07-29T15:17:37.442Z,3.38
2022-07-29T15:20:43.182Z,3.78
2022-07-29T15:23:49.191Z,3.58
2022-07-29T15:25:22.273Z,4.18
2022-07-29T15:28:29.381Z,3.83
2022-07-29T15:30:02.449Z,3.80
2022-07-29T15:33:09.029Z,4.40
2022-07-29T15:34:42.068Z,3.75
2022-07-29T15:38:08.094Z,3.70
2022-07-29T15:41:16.174Z,3.90
2022-07-29T15:42:49.262Z,3.80
2022-07-29T15:46:14.016Z,4.00
2022-07-29T15:47:47.039Z,4.20
2022-07-29T15:49:20.153Z,3.95
2022-07-29T15:50:56.246Z,3.53
2022-07-29T15:52:30.766Z,3.60
2022-07-29T15:54:04.484Z,3.90
2022-07-29T15:55:37.506Z,3.80
2022-07-29T15:57:10.712Z,3.60
2022-07-29T15:58:43.713Z,3.70
2022-07-29T16:00:18.667Z,4.00
2022-07-29T16:01:51.681Z,3.75
2022-07-29T16:03:24.759Z,3.88
2022-07-29T16:06:29.731Z,3.70
2022-07-29T16:09:35.493Z,3.40
2022-07-29T16:11:08.527Z,3.85
2022-07-29T16:12:41.819Z,3.95
2022-07-29T16:14:14.859Z,3.78
2022-07-29T16:16:02.190Z,4.10
2022-07-29T16:17:36.141Z,4.05
2022-07-29T16:19:10.170Z,3.85
2022-07-29T16:20:43.409Z,4.40
2022-07-29T16:22:16.628Z,4.43
2022-07-29T16:23:49.749Z,4.85
2022-07-29T16:27:15.684Z,4.72
2022-07-29T16:28:47.648Z,5.15
2022-07-29T16:30:23.016Z,5.25
2022-07-29T16:31:57.495Z,4.22
2022-07-29T16:33:54.700Z,5.03
2022-07-29T16:35:23.671Z,4.50
2022-07-29T16:37:12.471Z,4.93
2022-07-29T16:38:47.071Z,4.30
2022-07-29T16:40:20.530Z,4.07
2022-07-29T16:41:55.925Z,4.22
2022-07-29T16:43:32.526Z,4.22
2022-07-29T16:45:06.840Z,4.00
2022-07-29T16:46:40.284Z,4.45
2022-07-29T16:48:17.960Z,4.10
2022-07-29T16:49:51.454Z,3.90
2022-07-29T16:52:57.426Z,3.85
2022-07-29T16:54:30.773Z,4.03
2022-07-29T16:56:03.701Z,4.35
2022-07-29T16:57:36.710Z,4.10
2022-07-29T16:59:10.223Z,4.95
2022-07-29T17:00:43.353Z,4.60
2022-07-29T17:04:09.255Z,4.60
2022-07-29T17:05:52.762Z,4.68
2022-07-29T17:07:27.437Z,4.55
2022-07-29T17:09:00.435Z,4.50
2022-07-29T17:10:33.784Z,4.00
2022-07-29T17:12:07.504Z,4.00
2022-07-29T17:13:40.503Z,4.30
2022-07-29T17:15:14.404Z,4.00
2022-07-29T17:16:58.908Z,3.90
2022-07-29T17:18:34.445Z,4.20
2022-07-29T17:20:10.428Z,4.28
2022-07-29T17:21:47.301Z,4.25
2022-07-29T17:23:22.232Z,3.97
2022-07-29T17:24:55.521Z,3.78
2022-07-29T17:26:28.832Z,4.10
2022-07-29T17:28:01.878Z,4.07
2022-07-29T17:29:35.935Z,4.15
2022-07-29T17:31:08.943Z,4.18
2022-07-29T17:32:42.047Z,4.38
2022-07-29T17:34:15.357Z,4.05
2022-07-29T17:36:07.652Z,2.88
2022-07-29T17:37:43.968Z,2.80
2022-07-29T17:39:17.019Z,3.00
2022-07-29T17:40:50.279Z,3.03
2022-07-29T17:42:23.321Z,3.40
2022-07-29T17:43:57.324Z,3.58
2022-07-29T17:45:49.660Z,3.35
2022-07-29T17:47:23.481Z,3.30
2022-07-29T17:48:57.639Z,3.75
2022-07-29T17:50:30.683Z,4.10
2022-07-29T17:52:05.379Z,3.45
2022-07-29T17:53:38.781Z,3.60
2022-07-29T17:55:13.278Z,4.45
2022-07-29T17:56:46.317Z,3.53
2022-07-29T17:58:19.327Z,2.90
2022-07-29T17:59:53.574Z,3.00
2022-07-29T18:01:26.637Z,3.53
2022-07-29T18:02:59.697Z,3.70
2022-07-29T18:04:32.753Z,3.67
2022-07-29T18:06:06.199Z,4.10
2022-07-29T18:07:40.904Z,3.90
2022-07-29T18:09:13.825Z,3.90
2022-07-29T18:10:47.259Z,3.08
2022-07-29T18:12:20.448Z,3.30
2022-07-29T18:15:26.381Z,3.47
2022-07-29T18:17:01.113Z,10.90
2022-07-29T18:18:34.732Z,3.58
2022-07-29T18:20:08.751Z,5.10
2022-07-29T18:21:51.833Z,3.60
2022-07-29T18:23:29.247Z,3.80
2022-07-29T18:25:02.397Z,4.10
2022-07-29T18:28:08.740Z,3.10
2022-07-29T18:29:41.722Z,3.38
2022-07-29T18:31:14.777Z,3.40
2022-07-29T18:33:18.146Z,3.33
2022-07-29T18:34:42.357Z,3.75
2022-07-29T18:36:15.903Z,4.95
2022-07-29T18:38:00.814Z,4.45
2022-07-29T18:39:37.157Z,4.00
2022-07-29T18:41:10.184Z,4.28
2022-07-29T18:42:43.240Z,4.80
2022-07-29T18:44:17.538Z,4.60
2022-07-29T18:45:50.803Z,3.80
2022-07-29T18:47:24.121Z,3.83
2022-07-29T18:49:05.080Z,3.80
2022-07-29T18:50:38.139Z,3.28
2022-07-29T18:52:11.182Z,3.47
2022-07-29T18:53:44.149Z,3.72
2022-07-29T18:55:18.645Z,3.95
2022-07-29T18:56:51.928Z,3.50
2022-07-29T18:58:25.011Z,4.13
2022-07-29T18:59:57.158Z,3.72
2022-07-29T19:01:31.596Z,3.83
2022-07-29T19:03:05.259Z,3.80
2022-07-29T19:06:11.312Z,4.25
2022-07-29T19:07:44.385Z,4.00
2022-07-29T19:09:17.887Z,3.50
2022-07-29T19:10:52.348Z,3.70
2022-07-29T19:12:25.475Z,4.00
2022-07-29T19:13:58.612Z,4.70
2022-07-29T19:17:05.286Z,4.20
2022-07-29T19:18:38.690Z,4.05
2022-07-29T19:20:12.965Z,4.50
2022-07-29T19:21:47.030Z,4.10
2022-07-29T19:23:20.200Z,4.13
2022-07-29T19:26:27.855Z,4.20
2022-07-29T19:28:01.030Z,4.07
2022-07-29T19:31:08.640Z,4.32
2022-07-29T19:32:41.685Z,4.30
2022-07-29T19:34:14.791Z,4.20
2022-07-29T19:37:25.953Z,4.75
2022-07-29T19:38:59.996Z,4.10
2022-07-29T19:40:33.262Z,4.40
2022-07-29T19:43:51.590Z,4.28
2022-07-29T19:45:26.801Z,4.13
2022-07-29T19:47:00.735Z,4.70
2022-07-29T19:48:34.215Z,3.85
2022-07-29T19:51:41.638Z,4.32
2022-07-29T19:53:15.110Z,4.90
2022-07-29T19:54:48.525Z,4.53
2022-07-29T19:56:21.782Z,4.43
2022-07-29T19:57:59.714Z,4.85
2022-07-29T19:59:33.819Z,4.65
2022-07-29T20:01:10.403Z,4.30
2022-07-29T20:02:44.435Z,4.40
2022-07-29T20:04:17.567Z,4.45
2022-07-29T20:05:52.506Z,4.93
2022-07-29T20:07:26.015Z,4.10
2022-07-29T20:08:59.266Z,4.68
2022-07-29T20:12:06.575Z,5.80
2022-07-29T20:13:41.117Z,4.95
2022-07-29T20:15:16.566Z,4.95
2022-07-29T20:16:50.178Z,4.97
2022-07-29T20:18:23.243Z,5.28
2022-07-29T20:19:59.925Z,5.80
2022-07-29T20:21:33.938Z,5.40
2022-07-29T20:23:07.025Z,6.28
2022-07-29T20:26:15.063Z,6.00
2022-07-29T20:27:50.458Z,6.00
2022-07-29T20:29:25.449Z,5.70
2022-07-29T20:30:58.467Z,6.38
2022-07-29T20:32:31.716Z,5.90
2022-07-29T20:35:37.830Z,6.63
2022-07-29T20:38:46.503Z,6.72
2022-07-29T20:40:19.587Z,6.88
2022-07-29T20:43:25.563Z,6.95
2022-07-29T20:45:00.255Z,7.80
2022-07-29T20:46:33.558Z,8.40
2022-07-29T20:48:08.346Z,8.75
2022-07-29T20:49:41.577Z,8.05
2022-07-29T20:51:14.848Z,10.15
2022-07-29T20:52:47.940Z,8.80
2022-07-29T20:54:20.991Z,7.97
2022-07-29T20:55:53.155Z,10.80
2022-07-29T20:57:38.846Z,7.85
2022-07-29T20:59:12.903Z,7.57
2022-07-29T21:00:47.699Z,7.65
2022-07-29T21:02:20.721Z,8.10
2022-07-29T21:03:53.849Z,7.30
2022-07-29T21:05:27.044Z,7.53
2022-07-29T21:07:01.857Z,7.75
2022-07-29T21:08:35.193Z,7.78
2022-07-29T21:10:09.119Z,7.50
2022-07-29T21:11:44.636Z,7.82
2022-07-29T21:13:20.585Z,7.05
2022-07-29T21:14:53.616Z,7.80
2022-07-29T21:16:28.913Z,7.28
2022-07-29T21:18:04.928Z,7.65
2022-07-29T21:19:38.135Z,7.32
2022-07-29T21:22:44.265Z,7.03
2022-07-29T21:25:50.381Z,7.15
2022-07-29T21:29:14.059Z,6.75
2022-07-29T21:32:28.458Z,6.45
2022-07-29T21:34:03.467Z,6.35
2022-07-29T21:36:06.290Z,6.80
2022-07-29T21:37:29.476Z,7.18
2022-07-29T21:39:07.047Z,7.55
2022-07-29T21:40:40.302Z,7.05
2022-07-29T21:42:13.395Z,7.25
2022-07-29T21:45:19.536Z,7.07
2022-07-29T21:48:27.993Z,9.45
2022-07-29T21:50:01.074Z,8.13
2022-07-29T21:51:34.098Z,6.63
2022-07-29T21:53:07.268Z,7.70
2022-07-29T21:54:44.137Z,7.88
2022-07-29T21:56:18.012Z,7.60
2022-07-29T21:57:51.239Z,7.57
2022-07-29T22:00:57.257Z,7.93
2022-07-29T22:04:04.719Z,7.82
2022-07-29T22:05:37.962Z,7.82
2022-07-29T22:08:45.539Z,6.97
2022-07-29T22:10:19.480Z,7.32
2022-07-29T22:11:52.565Z,7.55
2022-07-29T22:13:25.673Z,8.05
2022-07-29T22:14:59.469Z,7.78
2022-07-29T22:16:32.619Z,8.13
2022-07-29T22:19:41.171Z,7.97
2022-07-29T22:21:14.795Z,7.95
2022-07-29T22:22:48.169Z,8.02
2022-07-29T22:24:21.206Z,8.43
2022-07-29T22:25:54.250Z,7.65
2022-07-29T22:27:26.278Z,7.97
2022-07-29T22:28:59.421Z,7.93
2022-07-29T22:32:05.970Z,7.30
2022-07-29T22:33:39.002Z,7.15
2022-07-29T22:35:13.399Z,6.75
2022-07-29T22:36:46.541Z,6.70
2022-07-29T22:39:51.533Z,6.60
2022-07-29T22:41:24.476Z,5.85
2022-07-29T22:42:56.414Z,6.10
2022-07-29T22:44:29.411Z,6.20
2022-07-29T22:46:02.530Z,6.57
2022-07-29T22:49:21.145Z,7.22
2022-07-29T22:50:55.673Z,8.05
2022-07-29T22:52:28.673Z,7.78
2022-07-29T22:54:01.627Z,7.40
2022-07-29T22:55:34.811Z,8.43
2022-07-29T22:58:40.644Z,7.78
2022-07-29T23:00:14.789Z,8.40
2022-07-29T23:01:46.810Z,7.70
2022-07-29T23:03:19.901Z,7.70
2022-07-29T23:04:52.960Z,7.90
2022-07-29T23:06:27.320Z,8.70
2022-07-29T23:08:00.342Z,8.70
2022-07-29T23:09:33.414Z,8.50
2022-07-29T23:11:08.589Z,8.50
2022-07-29T23:14:13.812Z,7.43
2022-07-29T23:17:20.171Z,7.80
2022-07-29T23:18:53.202Z,7.90
2022-07-29T23:20:26.288Z,8.15
2022-07-29T23:22:00.687Z,8.00
2022-07-29T23:23:33.663Z,8.25
2022-07-29T23:25:07.774Z,8.07
2022-07-29T23:26:40.827Z,8.50
2022-07-29T23:28:14.380Z,9.07
2022-07-29T23:29:47.497Z,7.55
2022-07-29T23:31:20.775Z,8.63
2022-07-29T23:32:54.140Z,8.63
2022-07-29T23:34:28.038Z,8.90